RO-0017 weather

Aerodrom Cioca
Cioca, Timiş, Romania

Public forecast

Using degrees Celsius for public forecast. Weather courtesy of forecast.io.

METAR (pilot weather report)

Closest report is Timişoara Traian Vuia Airport, 6.3 nm (11.7 km) ENE. Retrieved 2019/06/20 05:30 UTC (0 seconds ago):

LRTR 200530Z 11008KT 9999 FEW050CB 20/20 Q1012 R11/290095

TAF (pilot weather forecast)

Forecast is more than 12 hours old.

Closest forecast is Timişoara Traian Vuia Airport, 6.3 nm (11.7 km) ENE. Retrieved 2019/06/19 00:33 UTC (1 day ago):

TAF LRTR 192300Z 2000/2024 09006KT 9999 SCT025 TEMPO 2000/2004 VRB20KT 3000 TSRA BKN010 BKN030CB TEMPO 2011/2017 SCT040CB